UTDK

Kulob Airport

Kulyab, Tajikistan
TAF UTDK 142100Z 1422/1507 03005MPS 5000 BR FEW066 SCT150
Issued Valid From Valid To
Dec-14 @ 21:00 UTC
(40 minutes ago)
Dec-14 @ 22:00 UTC
(in 20 minutes)
Dec-15 @ 07:00 UTC
(in 9 hours)
Dec-14 @ 22:00 to Dec-15 @ 07:00
TAF UTDK 142100Z 1422/1507 03005MPS 5000 BR FEW066 SCT150
Wind Visibility Clouds Conditions
30° at 10 knots 5,005 meters
  • Few at 6,600' AGL
  • Scattered at 15,000' AGL
  • Mist
TAF UTDK 142100Z 1422/1507 03005MPS 5000 BR FEW066 SCT150
Issued Dec-14 @ 21:00 UTC
(40 minutes ago)
Valid From Dec-14 @ 22:00 UTC
(in 20 minutes)
Valid To Dec-15 @ 07:00 UTC
(in 9 hours)
Dec-14 @ 22:00 - Dec-15 @ 07:00
Wind Visibility
30° at 10 knots 5,005 meters
Clouds
  • Few at 6,600' AGL
  • Scattered at 15,000' AGL
Conditions
  • Mist